Time;durP1;ratioP1;P1;durP2;ratioP2;P2;SDS_P1;SDS_P2;PMS_P1;PMS_P2;Temp;Humidity;BMP_temperature;BMP_pressure;BME280_temperature;BME280_humidity;BME280_pressure;Samples;Min_cycle;Max_cycle;Signal;HPM_P1;HPM_P2
2023/03/09 00:01:32;;;;;;;25.73;12.27;;;1.90;38.40;;;;;;6341890;22;20247;-94
2023/03/09 00:04:00;;;;;;;20.13;11.13;;;1.90;52.00;;;;;;6341572;22;20177;-94
2023/03/09 00:06:27;;;;;;;22.40;11.63;;;1.90;58.10;;;;;;6341782;22;20197;-93
2023/03/09 00:08:55;;;;;;;18.90;11.37;;;1.80;48.10;;;;;;6341649;22;20177;-94
2023/03/09 00:11:24;;;;;;;22.80;11.43;;;1.80;57.50;;;;;;6341642;22;20720;-94
2023/03/09 00:13:52;;;;;;;19.10;10.87;;;1.80;99.90;;;;;;6341812;22;20530;-94
2023/03/09 00:16:21;;;;;;;20.53;10.40;;;1.80;99.90;;;;;;6341569;22;20206;-93
2023/03/09 00:18:48;;;;;;;19.77;10.40;;;1.70;99.90;;;;;;6340998;22;20170;-94
2023/03/09 00:21:34;;;;;;;20.00;10.40;;;1.70;99.90;;;;;;6341406;22;20178;-93
2023/03/09 00:24:01;;;;;;;22.97;11.60;;;1.70;99.90;;;;;;6341722;22;20205;-94
2023/03/09 00:26:29;;;;;;;22.90;11.60;;;1.70;99.90;;;;;;6341536;22;20195;-94
2023/03/09 00:28:56;;;;;;;22.17;11.83;;;1.70;99.90;;;;;;6340905;22;20170;-94
2023/03/09 00:31:23;;;;;;;20.73;11.77;;;1.70;99.90;;;;;;6341728;22;20498;-93
2023/03/09 00:33:50;;;;;;;21.07;11.10;;;1.70;99.90;;;;;;6341423;22;20172;-94
2023/03/09 00:36:18;;;;;;;23.43;11.37;;;1.70;99.90;;;;;;6340425;22;20638;-93
2023/03/09 00:38:49;;;;;;;25.33;12.43;;;1.70;99.90;;;;;;6341377;22;20178;-93
2023/03/09 00:41:16;;;;;;;25.57;12.50;;;1.70;99.90;;;;;;6341342;22;20164;-94
2023/03/09 00:43:44;;;;;;;23.53;12.17;;;1.70;99.90;;;;;;6341460;22;20188;-94
2023/03/09 00:46:11;;;;;;;23.27;12.43;;;1.60;99.90;;;;;;6340818;22;20182;-93
2023/03/09 00:48:38;;;;;;;23.10;12.37;;;1.60;99.90;;;;;;6341163;22;20585;-93
2023/03/09 00:51:06;;;;;;;24.33;12.60;;;1.60;99.90;;;;;;6341070;22;20202;-93
2023/03/09 00:53:33;;;;;;;24.13;13.20;;;1.60;99.90;;;;;;6341254;22;20173;-93
2023/03/09 00:56:02;;;;;;;20.90;11.00;;;1.60;99.90;;;;;;6341199;22;20629;-93
2023/03/09 00:58:29;;;;;;;24.60;13.50;;;1.60;99.90;;;;;;6341185;22;20168;-94
2023/03/09 01:00:57;;;;;;;22.90;12.07;;;1.60;99.90;;;;;;6340865;22;20621;-94
2023/03/09 01:03:24;;;;;;;19.80;10.30;;;1.60;99.90;;;;;;6341338;22;20224;-93
2023/03/09 01:05:51;;;;;;;25.60;12.77;;;1.60;99.90;;;;;;6341274;22;20205;-93
2023/03/09 01:08:18;;;;;;;27.80;14.23;;;1.60;99.90;;;;;;6340614;22;20195;-94
2023/03/09 01:10:45;;;;;;;28.27;14.63;;;1.60;99.90;;;;;;6340561;22;20641;-93
2023/03/09 01:13:12;;;;;;;27.83;13.53;;;1.60;99.90;;;;;;6340817;22;20487;-94
2023/03/09 01:15:39;;;;;;;27.10;13.90;;;1.60;99.90;;;;;;6340931;22;20633;-93
2023/03/09 01:18:07;;;;;;;21.73;12.03;;;1.60;99.90;;;;;;6341445;22;20171;-93
2023/03/09 01:20:33;;;;;;;22.67;13.17;;;1.60;99.90;;;;;;6341606;22;20189;-93
2023/03/09 01:23:00;;;;;;;28.13;14.03;;;1.60;99.90;;;;;;6340814;22;20497;-94
2023/03/09 01:25:27;;;;;;;26.93;14.00;;;1.60;99.90;;;;;;6340330;22;20183;-94
2023/03/09 01:27:54;;;;;;;25.67;13.27;;;1.60;99.90;;;;;;6340886;22;20220;-93
2023/03/09 01:30:21;;;;;;;24.60;12.67;;;1.60;99.90;;;;;;6340699;22;20160;-93
2023/03/09 01:32:48;;;;;;;25.70;12.43;;;1.60;99.90;;;;;;6340630;22;20172;-93
2023/03/09 01:35:16;;;;;;;24.60;13.23;;;1.60;99.90;;;;;;6341021;22;20200;-94
2023/03/09 01:37:43;;;;;;;24.10;12.87;;;1.60;99.90;;;;;;6340296;22;20160;-93
2023/03/09 01:40:16;;;;;;;27.60;13.57;;;1.60;99.90;;;;;;6340585;22;20177;-93
2023/03/09 01:42:43;;;;;;;28.23;13.33;;;1.50;1.00;;;;;;6341009;22;20157;-94
2023/03/09 01:45:47;;;;;;;22.73;12.73;;;1.50;1.00;;;;;;6340800;22;20188;-94
2023/03/09 01:48:13;;;;;;;25.60;12.17;;;1.50;1.00;;;;;;6340357;22;20638;-94
2023/03/09 01:50:42;;;;;;;22.23;12.60;;;1.60;99.90;;;;;;6340484;22;20191;-95
2023/03/09 01:53:14;;;;;;;21.43;11.87;;;1.50;1.00;;;;;;6340255;22;20502;-95
2023/03/09 01:55:46;;;;;;;22.23;11.33;;;1.50;1.00;;;;;;6341063;22;20209;-94
2023/03/09 01:58:16;;;;;;;24.23;11.87;;;1.50;1.00;;;;;;6340848;22;20481;-95
2023/03/09 02:00:47;;;;;;;20.40;11.57;;;1.50;1.00;;;;;;6340720;22;20166;-93
2023/03/09 02:03:17;;;;;;;22.87;11.40;;;1.50;1.00;;;;;;6340780;22;20163;-94
2023/03/09 02:05:49;;;;;;;21.33;10.57;;;1.50;1.00;;;;;;6340827;22;20263;-94
2023/03/09 02:08:18;;;;;;;16.13;9.07;;;1.50;1.00;;;;;;6340291;22;20484;-94
2023/03/09 02:10:50;;;;;;;22.23;11.30;;;1.50;99.90;;;;;;6340457;22;20643;-95
2023/03/09 02:13:20;;;;;;;22.40;11.37;;;1.50;1.00;;;;;;6340481;22;20178;-95
2023/03/09 02:15:47;;;;;;;17.93;9.37;;;1.50;99.90;;;;;;6340864;22;20146;-94
2023/03/09 02:18:14;;;;;;;16.10;8.93;;;1.50;99.90;;;;;;6340557;22;20161;-93
2023/03/09 02:20:52;;;;;;;17.87;9.90;;;1.50;99.90;;;;;;6340257;22;20167;-94
2023/03/09 02:23:26;;;;;;;15.60;8.10;;;1.50;99.90;;;;;;6340667;22;20157;-94
2023/03/09 02:25:59;;;;;;;18.53;9.43;;;1.50;99.90;;;;;;6340468;22;20179;-95
2023/03/09 02:28:27;;;;;;;14.90;8.67;;;1.50;99.90;;;;;;6341015;22;20155;-94
2023/03/09 02:30:55;;;;;;;17.47;8.97;;;1.50;99.90;;;;;;6340845;22;20166;-94
2023/03/09 02:33:25;;;;;;;20.40;8.80;;;1.50;99.90;;;;;;6340535;22;20711;-94
2023/03/09 02:35:53;;;;;;;13.90;8.70;;;1.50;99.90;;;;;;6340549;22;20157;-93
2023/03/09 02:38:20;;;;;;;18.73;9.53;;;1.50;99.90;;;;;;6340390;22;20166;-93
2023/03/09 02:40:47;;;;;;;17.13;9.03;;;1.50;99.90;;;;;;6340043;22;20252;-94
2023/03/09 02:43:17;;;;;;;16.63;9.13;;;1.50;99.90;;;;;;6340188;22;20167;-93
2023/03/09 02:45:46;;;;;;;15.00;8.67;;;1.50;99.90;;;;;;6340359;22;20503;-95
2023/03/09 02:48:13;;;;;;;15.60;8.97;;;1.50;99.90;;;;;;6340223;22;20632;-95
2023/03/09 02:50:40;;;;;;;14.90;8.77;;;1.50;99.90;;;;;;6339684;22;20265;-93
2023/03/09 02:53:07;;;;;;;15.30;8.83;;;1.50;99.90;;;;;;6340805;22;20176;-93
2023/03/09 02:55:33;;;;;;;18.53;10.00;;;1.50;99.90;;;;;;6340806;22;20172;-94
2023/03/09 02:58:00;;;;;;;19.07;9.77;;;1.50;99.90;;;;;;6339817;22;20167;-94
2023/03/09 03:00:28;;;;;;;19.87;10.00;;;1.50;99.90;;;;;;6340268;22;20561;-94
2023/03/09 03:02:56;;;;;;;18.40;10.07;;;1.50;99.90;;;;;;6340157;22;20174;-94
2023/03/09 03:05:23;;;;;;;17.83;8.93;;;1.50;99.90;;;;;;6340442;22;20174;-94
2023/03/09 03:07:50;;;;;;;19.47;10.70;;;1.50;75.10;;;;;;6340382;22;20216;-94
2023/03/09 03:10:17;;;;;;;23.73;10.23;;;1.50;63.10;;;;;;6340276;22;20178;-94
2023/03/09 03:12:44;;;;;;;18.30;10.57;;;1.50;60.40;;;;;;6340456;22;20669;-94
2023/03/09 03:15:11;;;;;;;20.53;10.80;;;1.50;69.50;;;;;;6340092;22;20545;-94
2023/03/09 03:17:39;;;;;;;20.90;11.17;;;1.50;52.10;;;;;;6339635;22;20166;-95
2023/03/09 03:20:12;;;;;;;16.93;9.07;;;1.40;86.60;;;;;;6340125;22;20615;-94
2023/03/09 03:22:39;;;;;;;20.17;10.50;;;1.40;99.90;;;;;;6340456;22;20173;-94
2023/03/09 03:25:07;;;;;;;20.97;10.83;;;1.40;65.00;;;;;;6340154;22;20241;-93
2023/03/09 03:27:33;;;;;;;21.77;11.43;;;1.40;93.10;;;;;;6340560;22;20265;-95
2023/03/09 03:30:02;;;;;;;21.37;11.43;;;1.40;49.80;;;;;;6339803;22;20250;-94
2023/03/09 03:32:29;;;;;;;20.07;11.50;;;1.40;43.40;;;;;;6339473;22;20240;-95
2023/03/09 03:34:56;;;;;;;19.70;11.70;;;1.30;64.40;;;;;;6340024;22;20635;-94
2023/03/09 03:37:24;;;;;;;20.87;11.77;;;1.30;90.20;;;;;;6339977;22;20547;-94
2023/03/09 03:39:51;;;;;;;21.37;10.27;;;1.30;93.00;;;;;;6340075;22;20499;-95
2023/03/09 03:42:17;;;;;;;22.70;11.60;;;1.30;42.00;;;;;;6339581;22;20506;-93
2023/03/09 03:44:44;;;;;;;22.83;12.33;;;1.30;59.60;;;;;;6340123;22;20228;-94
2023/03/09 03:47:11;;;;;;;24.80;10.73;;;1.30;59.80;;;;;;6339573;22;20192;-95
2023/03/09 03:49:38;;;;;;;21.60;12.40;;;1.30;74.70;;;;;;6340052;22;20189;-94
2023/03/09 03:52:05;;;;;;;23.33;12.60;;;1.20;70.30;;;;;;6339978;22;20143;-94
2023/03/09 03:54:33;;;;;;;22.77;12.00;;;1.20;99.90;;;;;;6340089;22;20166;-93
2023/03/09 03:57:01;;;;;;;22.00;10.17;;;1.20;99.90;;;;;;6339919;22;20645;-94
2023/03/09 03:59:27;;;;;;;21.33;11.60;;;1.20;99.90;;;;;;6340163;22;20174;-95
2023/03/09 04:01:54;;;;;;;25.43;13.50;;;1.20;99.90;;;;;;6339877;22;20166;-94
2023/03/09 04:04:21;;;;;;;23.60;11.67;;;1.20;99.90;;;;;;6340507;22;20173;-94
2023/03/09 04:06:48;;;;;;;22.57;12.07;;;1.20;99.90;;;;;;6340341;22;20196;-94
2023/03/09 04:09:15;;;;;;;19.10;11.30;;;1.20;99.90;;;;;;6340505;22;20170;-94
2023/03/09 04:11:45;;;;;;;25.57;12.00;;;1.20;99.90;;;;;;6341664;22;20166;-94
2023/03/09 04:14:12;;;;;;;17.03;9.97;;;1.10;99.90;;;;;;6340983;22;20150;-94
2023/03/09 04:16:38;;;;;;;21.47;10.93;;;1.10;99.90;;;;;;6341195;22;20163;-94
2023/03/09 04:19:05;;;;;;;20.37;11.97;;;1.10;99.90;;;;;;6341809;22;20219;-94
2023/03/09 04:21:32;;;;;;;20.93;9.90;;;1.10;99.90;;;;;;6341615;22;20170;-94
2023/03/09 04:23:59;;;;;;;16.57;10.20;;;1.10;99.90;;;;;;6341160;22;20244;-95
2023/03/09 04:26:26;;;;;;;21.70;10.97;;;1.00;99.90;;;;;;6341075;22;20189;-95
2023/03/09 04:28:54;;;;;;;18.13;9.83;;;1.00;99.90;;;;;;6341347;22;20241;-95
2023/03/09 04:31:21;;;;;;;19.83;9.70;;;1.00;99.90;;;;;;6340902;22;20167;-94
2023/03/09 04:33:48;;;;;;;15.60;8.87;;;0.90;99.90;;;;;;6341296;22;20177;-95
2023/03/09 04:36:14;;;;;;;13.63;7.70;;;0.90;99.90;;;;;;6341273;22;20162;-94
2023/03/09 04:38:41;;;;;;;17.67;9.70;;;0.90;99.90;;;;;;6341406;22;20171;-95
2023/03/09 04:41:10;;;;;;;13.77;8.70;;;0.90;99.90;;;;;;6341406;22;20174;-94
2023/03/09 04:43:37;;;;;;;14.87;8.30;;;0.90;99.90;;;;;;6341394;22;20556;-93
2023/03/09 04:46:05;;;;;;;18.73;8.87;;;0.90;99.90;;;;;;6341261;22;20253;-94
2023/03/09 04:48:32;;;;;;;15.50;9.00;;;0.90;99.90;;;;;;6341133;22;20229;-94
2023/03/09 04:50:59;;;;;;;15.67;8.17;;;0.90;99.90;;;;;;6341032;22;20196;-93
2023/03/09 04:53:26;;;;;;;15.90;9.77;;;0.90;99.90;;;;;;6341265;22;20166;-94
2023/03/09 04:55:52;;;;;;;16.57;8.87;;;0.90;99.90;;;;;;6341252;22;20189;-93
2023/03/09 04:58:19;;;;;;;18.70;9.20;;;0.90;99.90;;;;;;6341274;22;20166;-94
2023/03/09 05:00:46;;;;;;;22.93;10.07;;;0.80;99.90;;;;;;6340749;22;20253;-93
2023/03/09 05:03:14;;;;;;;17.30;9.23;;;0.80;99.90;;;;;;6340719;22;20170;-95
2023/03/09 05:05:41;;;;;;;19.07;9.03;;;0.80;99.90;;;;;;6341452;22;20248;-94
2023/03/09 05:08:08;;;;;;;16.07;8.57;;;0.80;1.00;;;;;;6341230;22;20195;-94
2023/03/09 05:10:34;;;;;;;16.50;8.93;;;0.80;1.00;;;;;;6341080;22;20172;-94
2023/03/09 05:13:01;;;;;;;17.13;7.73;;;0.80;1.00;;;;;;6340592;22;20249;-94
2023/03/09 05:15:28;;;;;;;15.87;9.47;;;0.80;1.00;;;;;;6340947;22;20565;-95
2023/03/09 05:17:55;;;;;;;19.17;9.90;;;0.80;1.00;;;;;;6341118;22;20172;-94
2023/03/09 05:20:24;;;;;;;15.67;7.80;;;0.80;1.00;;;;;;6340262;22;20219;-94
2023/03/09 05:22:50;;;;;;;16.23;6.93;;;0.80;1.00;;;;;;6341264;22;20592;-94
2023/03/09 05:25:17;;;;;;;15.83;9.47;;;0.80;1.00;;;;;;6340981;22;20166;-95
2023/03/09 05:27:44;;;;;;;14.00;7.97;;;0.80;1.00;;;;;;6341121;22;20186;-95
2023/03/09 05:30:12;;;;;;;11.77;6.13;;;0.80;1.00;;;;;;6341007;22;20169;-94
2023/03/09 05:32:38;;;;;;;13.93;8.20;;;0.70;1.00;;;;;;6341452;22;20168;-95
2023/03/09 05:35:06;;;;;;;12.17;7.60;;;0.70;1.00;;;;;;6341180;22;20166;-94
2023/03/09 05:37:35;;;;;;;11.97;5.77;;;0.70;1.00;;;;;;6341259;22;20237;-96
2023/03/09 05:40:04;;;;;;;10.50;5.60;;;0.70;1.00;;;;;;6340901;22;20248;-95
2023/03/09 05:42:31;;;;;;;13.50;6.60;;;0.70;1.00;;;;;;6341801;22;20250;-95
2023/03/09 05:44:59;;;;;;;14.57;7.37;;;0.80;1.00;;;;;;6340881;22;20169;-95
2023/03/09 05:47:26;;;;;;;15.13;7.63;;;0.80;1.00;;;;;;6341291;22;20224;-95
2023/03/09 05:49:53;;;;;;;15.10;7.97;;;0.80;1.00;;;;;;6340804;22;20270;-95
2023/03/09 05:52:19;;;;;;;10.63;6.03;;;0.70;1.00;;;;;;6340555;22;20170;-95
2023/03/09 05:54:50;;;;;;;10.27;5.53;;;0.80;1.00;;;;;;6341914;22;20166;-96
2023/03/09 05:57:17;;;;;;;15.17;6.80;;;0.70;1.00;;;;;;6343014;22;20660;-96
2023/03/09 05:59:44;;;;;;;14.10;7.37;;;0.70;1.00;;;;;;6343806;22;20182;-95
2023/03/09 06:02:11;;;;;;;12.63;7.57;;;0.70;1.00;;;;;;6343609;22;20200;-96
2023/03/09 06:04:38;;;;;;;12.67;7.40;;;0.70;1.00;;;;;;6344530;22;20197;-96
2023/03/09 06:07:05;;;;;;;14.27;8.03;;;0.70;1.00;;;;;;6342491;22;20231;-96
2023/03/09 06:09:32;;;;;;;13.23;6.47;;;0.80;1.00;;;;;;6342573;22;20177;-96
2023/03/09 06:12:00;;;;;;;13.97;6.57;;;0.80;1.00;;;;;;6341570;22;20197;-96
2023/03/09 06:14:27;;;;;;;10.90;5.30;;;0.90;1.00;;;;;;6345317;22;20170;-96
2023/03/09 06:16:54;;;;;;;10.30;5.93;;;1.00;1.00;;;;;;6342339;22;20162;-96
2023/03/09 06:19:21;;;;;;;12.27;7.10;;;1.10;1.00;;;;;;6342560;22;20176;-95
2023/03/09 06:21:48;;;;;;;12.97;6.63;;;1.10;1.00;;;;;;6340788;22;20166;-95
2023/03/09 06:24:15;;;;;;;12.13;6.83;;;1.20;1.00;;;;;;6340567;22;20546;-93
2023/03/09 06:26:42;;;;;;;14.23;7.37;;;1.30;1.00;;;;;;6340206;22;20194;-96
2023/03/09 06:29:10;;;;;;;13.60;6.87;;;1.40;99.90;;;;;;6340521;22;20162;-93
2023/03/09 06:31:37;;;;;;;11.47;6.20;;;1.30;99.90;;;;;;6340797;22;20219;-95
2023/03/09 06:34:04;;;;;;;12.03;7.03;;;1.40;99.90;;;;;;6340423;22;20190;-94
2023/03/09 06:36:32;;;;;;;12.77;7.30;;;1.30;99.90;;;;;;6340534;22;20234;-95
2023/03/09 06:38:59;;;;;;;10.90;6.60;;;1.40;99.90;;;;;;6340438;22;20173;-95
2023/03/09 06:41:31;;;;;;;17.83;6.63;;;1.30;99.90;;;;;;6339934;22;20168;-94
2023/03/09 06:43:58;;;;;;;11.87;6.70;;;1.40;99.90;;;;;;6340925;22;20151;-94
2023/03/09 06:46:27;;;;;;;18.07;6.90;;;1.40;99.90;;;;;;6340786;22;20249;-96
2023/03/09 06:48:54;;;;;;;11.57;6.57;;;1.40;67.00;;;;;;6340655;22;20261;-94
2023/03/09 06:51:21;;;;;;;11.70;6.50;;;1.40;13.00;;;;;;6340207;22;20191;-93
2023/03/09 06:53:48;;;;;;;12.93;6.00;;;1.40;1.00;;;;;;6340841;22;20476;-95
2023/03/09 06:56:15;;;;;;;13.43;6.27;;;1.40;1.00;;;;;;6340306;22;20166;-95
2023/03/09 06:58:42;;;;;;;9.93;5.53;;;1.40;1.00;;;;;;6340733;22;20167;-95
2023/03/09 07:01:10;;;;;;;11.50;6.20;;;1.50;1.00;;;;;;6340341;22;20698;-95
2023/03/09 07:03:40;;;;;;;9.97;5.57;;;1.50;1.00;;;;;;6340644;22;20165;-94
2023/03/09 07:06:07;;;;;;;10.57;6.10;;;1.50;1.00;;;;;;6340596;22;20166;-94
2023/03/09 07:08:34;;;;;;;11.57;6.43;;;1.60;1.00;;;;;;6340598;22;20524;-94
2023/03/09 07:11:01;;;;;;;9.37;6.10;;;1.60;1.00;;;;;;6340284;22;20168;-95
2023/03/09 07:13:29;;;;;;;12.83;6.87;;;1.60;1.00;;;;;;6340110;22;20164;-94
2023/03/09 07:15:56;;;;;;;10.80;5.47;;;1.70;1.00;;;;;;6340563;22;20498;-95
2023/03/09 07:18:23;;;;;;;13.10;7.07;;;1.70;1.00;;;;;;6340630;22;20169;-95
2023/03/09 07:20:51;;;;;;;11.87;5.97;;;1.70;99.90;;;;;;6340749;22;20179;-94
2023/03/09 07:23:18;;;;;;;9.63;4.93;;;1.70;99.90;;;;;;6340114;22;20171;-95
2023/03/09 07:25:44;;;;;;;11.33;5.53;;;1.70;99.90;;;;;;6340159;22;20211;-96
2023/03/09 07:28:11;;;;;;;8.90;5.30;;;1.80;99.90;;;;;;6340088;22;20182;-94
2023/03/09 07:30:38;;;;;;;8.97;5.67;;;1.80;99.90;;;;;;6340676;22;20170;-95
2023/03/09 07:33:05;;;;;;;12.63;6.00;;;1.90;99.90;;;;;;6340473;22;20174;-96
2023/03/09 07:35:32;;;;;;;9.90;5.33;;;2.00;99.90;;;;;;6340108;22;20598;-96
2023/03/09 07:38:00;;;;;;;10.33;5.97;;;2.00;99.90;;;;;;6340659;22;20247;-96
2023/03/09 07:40:27;;;;;;;10.47;5.83;;;2.00;99.90;;;;;;6340518;22;20167;-96
2023/03/09 07:42:54;;;;;;;11.67;6.17;;;2.00;99.90;;;;;;6340823;22;20178;-96
2023/03/09 07:45:21;;;;;;;8.97;5.73;;;2.00;99.90;;;;;;6341806;22;20493;-94
2023/03/09 07:47:48;;;;;;;9.63;5.97;;;2.10;99.90;;;;;;6342273;22;20187;-95
2023/03/09 07:50:15;;;;;;;10.90;5.97;;;2.20;99.90;;;;;;6341766;22;20191;-96
2023/03/09 07:52:42;;;;;;;8.53;5.53;;;2.30;99.90;;;;;;6342360;22;20168;-96
2023/03/09 07:55:12;;;;;;;11.93;6.07;;;2.40;99.90;;;;;;6342172;22;20167;-94
2023/03/09 07:57:39;;;;;;;10.73;6.40;;;2.50;51.10;;;;;;6341640;22;20225;-94
2023/03/09 08:00:13;;;;;;;9.43;6.10;;;2.60;25.30;;;;;;6342176;22;20248;-95
2023/03/09 08:02:40;;;;;;;12.13;6.33;;;2.70;1.00;;;;;;6342106;22;20162;-95
2023/03/09 08:05:08;;;;;;;12.13;6.47;;;2.90;1.00;;;;;;6342357;22;20168;-95
2023/03/09 08:07:35;;;;;;;11.40;6.33;;;2.90;1.00;;;;;;6342054;22;20188;-95
2023/03/09 08:10:02;;;;;;;11.10;6.10;;;2.90;1.00;;;;;;6341790;22;20173;-95
2023/03/09 08:12:30;;;;;;;11.63;6.50;;;2.90;1.00;;;;;;6341965;22;20176;-95
2023/03/09 08:14:56;;;;;;;10.73;6.70;;;2.90;1.00;;;;;;6341556;22;20179;-94
2023/03/09 08:17:23;;;;;;;11.87;6.60;;;2.80;1.00;;;;;;6342161;22;20248;-95
2023/03/09 08:19:50;;;;;;;13.77;6.70;;;2.80;1.00;;;;;;6341824;22;20168;-96
2023/03/09 08:22:17;;;;;;;10.27;6.57;;;2.80;1.00;;;;;;6343576;22;20169;-95
2023/03/09 08:24:44;;;;;;;12.87;6.63;;;2.80;1.00;;;;;;6343206;22;20227;-95
2023/03/09 08:27:11;;;;;;;10.60;6.33;;;2.80;1.00;;;;;;6342226;22;20625;-96
2023/03/09 08:29:40;;;;;;;12.23;6.80;;;2.80;1.00;;;;;;6341799;22;20189;-96
2023/03/09 08:32:07;;;;;;;14.67;7.17;;;2.80;1.00;;;;;;6341920;22;20176;-96
2023/03/09 08:34:34;;;;;;;13.27;7.40;;;2.80;1.00;;;;;;6346446;22;20247;-96
2023/03/09 08:37:01;;;;;;;13.07;7.00;;;2.80;1.00;;;;;;6342520;22;20203;-95
2023/03/09 08:39:28;;;;;;;13.67;7.10;;;2.80;1.00;;;;;;6343966;22;20198;-96
2023/03/09 08:41:55;;;;;;;12.83;6.27;;;2.80;1.00;;;;;;6342464;22;20172;-95
2023/03/09 08:44:22;;;;;;;11.03;6.77;;;2.90;1.00;;;;;;6343663;22;20195;-96
2023/03/09 08:46:50;;;;;;;11.70;5.90;;;2.90;1.00;;;;;;6342477;22;20165;-96
2023/03/09 08:49:17;;;;;;;13.27;7.83;;;3.00;1.00;;;;;;6347650;22;20248;-96
2023/03/09 08:51:43;;;;;;;11.77;6.87;;;3.00;1.00;;;;;;6345188;22;20162;-96
2023/03/09 08:54:11;;;;;;;14.20;7.20;;;3.10;1.00;;;;;;6344171;22;20713;-96
2023/03/09 08:56:37;;;;;;;13.07;7.90;;;3.10;1.00;;;;;;6341854;22;20272;-96
2023/03/09 08:59:04;;;;;;;14.33;7.50;;;3.20;1.00;;;;;;6342042;22;20162;-96
2023/03/09 09:01:31;;;;;;;12.23;7.60;;;3.20;1.00;;;;;;6341693;22;20182;-95
2023/03/09 09:04:00;;;;;;;12.53;7.63;;;3.20;1.00;;;;;;6341318;22;20170;-96
2023/03/09 09:06:28;;;;;;;14.57;8.13;;;3.30;1.00;;;;;;6341682;22;20192;-96
2023/03/09 09:08:55;;;;;;;13.53;8.07;;;3.40;1.00;;;;;;6341617;22;20263;-95
2023/03/09 09:11:22;;;;;;;10.97;7.13;;;3.40;1.00;;;;;;6341313;22;20247;-96
2023/03/09 09:13:49;;;;;;;11.77;6.47;;;3.40;1.00;;;;;;6341274;22;20247;-95
2023/03/09 09:16:16;;;;;;;16.63;8.03;;;3.30;1.00;;;;;;6341451;22;20197;-94
2023/03/09 09:18:43;;;;;;;13.13;7.20;;;3.20;1.00;;;;;;6341569;22;20200;-95
2023/03/09 09:21:13;;;;;;;13.47;8.07;;;3.20;1.00;;;;;;6340742;22;20163;-94
2023/03/09 09:23:41;;;;;;;15.37;7.80;;;3.20;1.00;;;;;;6341130;22;20184;-95
2023/03/09 09:26:08;;;;;;;14.47;8.17;;;3.10;1.00;;;;;;6341283;22;20172;-94
2023/03/09 09:28:35;;;;;;;15.47;8.57;;;3.00;1.00;;;;;;6341141;22;20183;-94
2023/03/09 09:31:04;;;;;;;13.57;7.87;;;3.10;1.00;;;;;;6341590;22;20206;-94
2023/03/09 09:33:33;;;;;;;17.23;8.33;;;3.20;1.00;;;;;;6340739;22;20616;-93
2023/03/09 09:36:01;;;;;;;14.10;8.27;;;3.20;1.00;;;;;;6340823;22;20197;-93
2023/03/09 09:38:31;;;;;;;13.87;8.27;;;3.30;1.00;;;;;;6340909;22;20237;-94
2023/03/09 09:41:00;;;;;;;15.77;7.90;;;3.30;1.00;;;;;;6341287;22;20220;-96
2023/03/09 09:43:30;;;;;;;11.93;7.40;;;3.40;1.00;;;;;;6341054;22;20172;-94
2023/03/09 09:45:59;;;;;;;11.67;6.67;;;3.40;1.00;;;;;;6341187;22;20173;-95
2023/03/09 09:48:28;;;;;;;12.13;7.90;;;3.40;1.00;;;;;;6340620;22;20189;-95
2023/03/09 09:51:10;;;;;;;12.97;8.17;;;3.40;1.00;;;;;;6340558;22;20196;-96
2023/03/09 09:53:50;;;;;;;13.53;7.97;;;3.40;1.00;;;;;;6340952;22;20161;-94
2023/03/09 09:56:22;;;;;;;13.73;7.67;;;3.40;1.00;;;;;;6341440;22;20188;-95
2023/03/09 09:58:54;;;;;;;13.67;8.47;;;3.50;1.00;;;;;;6340807;22;20227;-95
2023/03/09 10:01:26;;;;;;;14.90;8.80;;;3.50;1.00;;;;;;6340754;22;20170;-94
2023/03/09 10:03:58;;;;;;;12.60;7.90;;;3.50;1.00;;;;;;6340883;22;20157;-93
2023/03/09 10:06:26;;;;;;;16.27;8.20;;;3.60;1.00;;;;;;6341235;22;20154;-94
2023/03/09 10:08:57;;;;;;;13.50;7.83;;;3.60;1.00;;;;;;6340494;22;20670;-95
2023/03/09 10:11:27;;;;;;;12.00;7.40;;;3.70;1.00;;;;;;6341014;22;20160;-94
2023/03/09 10:13:58;;;;;;;12.57;8.03;;;3.80;1.00;;;;;;6341148;22;20172;-93
2023/03/09 10:16:28;;;;;;;16.50;8.20;;;3.90;1.00;;;;;;6341099;22;20247;-95
2023/03/09 10:18:59;;;;;;;14.00;7.33;;;4.00;1.00;;;;;;6340627;22;20150;-95
2023/03/09 10:21:32;;;;;;;12.43;8.13;;;4.00;1.00;;;;;;6341245;22;20150;-94
2023/03/09 10:24:12;;;;;;;14.00;7.40;;;4.00;1.00;;;;;;6340620;22;20450;-94
2023/03/09 10:26:44;;;;;;;13.43;7.10;;;4.00;1.00;;;;;;6340741;22;20172;-95
2023/03/09 10:29:18;;;;;;;14.10;7.13;;;4.10;1.00;;;;;;6340355;22;20174;-94
2023/03/09 10:31:51;;;;;;;13.50;8.77;;;4.10;1.00;;;;;;6341169;22;20153;-94
2023/03/09 10:34:23;;;;;;;14.10;8.20;;;4.20;1.00;;;;;;6340413;22;20154;-94
2023/03/09 10:36:59;;;;;;;14.33;8.03;;;4.20;1.00;;;;;;6340899;22;20156;-93
2023/03/09 10:39:32;;;;;;;13.07;8.13;;;4.10;1.00;;;;;;6340738;22;20200;-94
2023/03/09 10:42:01;;;;;;;16.27;7.80;;;4.00;1.00;;;;;;6340528;22;20154;-94
2023/03/09 10:44:29;;;;;;;13.97;8.60;;;3.90;1.00;;;;;;6340797;22;20495;-94
2023/03/09 10:46:58;;;;;;;12.03;7.70;;;3.90;1.00;;;;;;6340800;22;20173;-93
2023/03/09 10:49:26;;;;;;;14.57;8.37;;;3.80;1.00;;;;;;6340180;22;20235;-92
2023/03/09 10:52:00;;;;;;;11.97;8.70;;;3.80;1.00;;;;;;6340550;22;20241;-94
2023/03/09 10:54:34;;;;;;;14.97;8.13;;;3.90;1.00;;;;;;6340638;22;20294;-95
2023/03/09 10:57:01;;;;;;;11.73;7.60;;;4.00;1.00;;;;;;6340637;22;20150;-94
2023/03/09 10:59:28;;;;;;;14.80;8.57;;;4.00;1.00;;;;;;6340774;22;20162;-93
2023/03/09 11:01:59;;;;;;;13.00;8.53;;;4.00;1.00;;;;;;6339904;22;20162;-94
2023/03/09 11:04:29;;;;;;;13.93;8.23;;;4.00;1.00;;;;;;6340064;22;20161;-94
2023/03/09 11:06:57;;;;;;;13.93;8.77;;;4.00;1.00;;;;;;6340996;22;20164;-95
2023/03/09 11:09:32;;;;;;;14.43;9.23;;;4.00;1.00;;;;;;6340100;22;20735;-94
2023/03/09 11:12:15;;;;;;;13.77;8.33;;;4.00;1.00;;;;;;6340567;22;20149;-94
2023/03/09 11:14:45;;;;;;;16.10;9.17;;;4.00;1.00;;;;;;6340302;22;20249;-94
2023/03/09 11:17:35;;;;;;;15.33;9.47;;;4.00;1.00;;;;;;6340235;22;20172;-93
2023/03/09 11:20:24;;;;;;;12.43;8.60;;;4.00;1.00;;;;;;6342324;22;20485;-93
2023/03/09 11:22:59;;;;;;;13.97;8.93;;;3.90;1.00;;;;;;6342300;22;20164;-93
2023/03/09 11:25:43;;;;;;;15.93;10.00;;;3.90;1.00;;;;;;6342114;22;20153;-94
2023/03/09 11:28:19;;;;;;;16.07;9.57;;;3.90;1.00;;;;;;6342546;22;20156;-94
2023/03/09 11:30:49;;;;;;;17.13;10.17;;;3.80;1.00;;;;;;6342314;22;20161;-94
2023/03/09 11:33:19;;;;;;;15.60;10.10;;;3.80;1.00;;;;;;6342241;22;20162;-94
2023/03/09 11:35:50;;;;;;;15.13;8.90;;;3.80;1.00;;;;;;6342132;22;20162;-94
2023/03/09 11:38:19;;;;;;;15.80;10.13;;;3.80;1.00;;;;;;6341880;22;20142;-95
2023/03/09 11:40:49;;;;;;;16.73;10.27;;;3.80;1.00;;;;;;6342133;22;20173;-96
2023/03/09 11:43:21;;;;;;;16.40;10.10;;;3.80;1.00;;;;;;6342550;22;20180;-95
2023/03/09 11:45:48;;;;;;;16.93;10.13;;;3.80;1.00;;;;;;6342214;22;20153;-94
2023/03/09 11:48:22;;;;;;;13.30;9.30;;;3.80;1.00;;;;;;6342121;22;20721;-94
2023/03/09 11:51:01;;;;;;;15.90;9.20;;;3.80;1.00;;;;;;6341634;22;20186;-95
2023/03/09 11:53:32;;;;;;;16.73;9.53;;;3.70;1.00;;;;;;6342068;22;20162;-95
2023/03/09 11:56:14;;;;;;;13.90;9.23;;;3.70;1.00;;;;;;6342271;22;20467;-94
2023/03/09 11:58:45;;;;;;;13.43;9.30;;;3.80;1.00;;;;;;6342167;22;20173;-95
2023/03/09 12:01:22;;;;;;;14.13;8.73;;;3.90;1.00;;;;;;6341855;22;20166;-95
2023/03/09 12:03:57;;;;;;;14.67;9.47;;;3.90;1.00;;;;;;6341822;22;20490;-94
2023/03/09 12:06:34;;;;;;;14.50;9.23;;;3.80;1.00;;;;;;6342058;22;20176;-94
2023/03/09 12:09:03;;;;;;;14.73;9.93;;;3.80;1.00;;;;;;6342031;22;20181;-95
2023/03/09 12:11:37;;;;;;;14.00;9.53;;;3.80;1.00;;;;;;6342189;22;20173;-94
2023/03/09 12:14:10;;;;;;;14.43;10.03;;;3.90;1.00;;;;;;6341667;22;20148;-95
2023/03/09 12:16:41;;;;;;;15.57;10.40;;;3.90;1.00;;;;;;6341530;22;20146;-94
2023/03/09 12:19:16;;;;;;;15.43;10.20;;;3.90;1.00;;;;;;6342217;22;20147;-95
2023/03/09 12:21:44;;;;;;;13.80;9.43;;;3.90;1.00;;;;;;6342068;22;20154;-93
2023/03/09 12:24:28;;;;;;;13.90;9.27;;;3.90;1.00;;;;;;6342071;22;20166;-94
2023/03/09 12:27:04;;;;;;;13.60;9.33;;;3.80;1.00;;;;;;6341936;22;20228;-95
2023/03/09 12:29:37;;;;;;;15.27;9.93;;;3.80;1.00;;;;;;6341094;22;20345;-95
2023/03/09 12:32:39;;;;;;;12.47;8.93;;;3.80;1.00;;;;;;6341764;22;20154;-96
2023/03/09 12:35:14;;;;;;;14.67;9.37;;;3.70;1.00;;;;;;6216551;23;20186;-94
2023/03/09 12:37:54;;;;;;;12.07;8.53;;;3.60;1.00;;;;;;6216729;23;20168;-94
2023/03/09 12:40:30;;;;;;;13.77;9.20;;;3.60;1.00;;;;;;6216262;23;20149;-95
2023/03/09 12:43:21;;;;;;;14.73;8.83;;;3.70;1.00;;;;;;6216230;23;20594;-95
2023/03/09 12:45:49;;;;;;;16.10;8.77;;;3.70;1.00;;;;;;6216346;23;20658;-95
2023/03/09 12:48:25;;;;;;;12.60;8.30;;;3.80;1.00;;;;;;6216423;23;20175;-94
2023/03/09 12:51:01;;;;;;;15.27;9.53;;;3.70;1.00;;;;;;6216038;23;20724;-95
2023/03/09 12:53:31;;;;;;;14.13;8.97;;;3.70;1.00;;;;;;6216393;23;20159;-94
2023/03/09 12:56:03;;;;;;;14.53;9.03;;;3.70;1.00;;;;;;6216279;23;20635;-95
2023/03/09 12:58:38;;;;;;;15.17;9.40;;;3.60;1.00;;;;;;6216391;23;20162;-94
2023/03/09 13:01:07;;;;;;;14.47;9.13;;;3.60;1.00;;;;;;6216264;23;20176;-96